sensor_id;sensor_type;location;lat;lon;timestamp;temperature;humidity
54700;DHT22;40599;53.132;6.090;2022-10-31T01:11:51;12.00;99.90
54700;DHT22;40599;53.132;6.090;2022-10-31T01:14:17;11.90;99.90
54700;DHT22;40599;53.132;6.090;2022-10-31T01:16:42;11.90;99.90
54700;DHT22;40599;53.132;6.090;2022-10-31T01:19:08;11.80;99.90
54700;DHT22;40599;53.132;6.090;2022-10-31T01:21:33;11.80;99.90
54700;DHT22;40599;53.132;6.090;2022-10-31T01:23:59;11.80;99.90
54700;DHT22;40599;53.132;6.090;2022-10-31T01:26:28;11.80;99.90
54700;DHT22;40599;53.132;6.090;2022-10-31T01:28:55;11.70;99.90
54700;DHT22;40599;53.132;6.090;2022-10-31T01:31:21;11.70;99.90
54700;DHT22;40599;53.132;6.090;2022-10-31T01:33:47;11.70;99.90
54700;DHT22;40599;53.132;6.090;2022-10-31T01:36:15;11.80;99.90
54700;DHT22;40599;53.132;6.090;2022-10-31T01:38:41;11.70;99.90
54700;DHT22;40599;53.132;6.090;2022-10-31T01:41:06;11.70;99.90
54700;DHT22;40599;53.132;6.090;2022-10-31T01:46:10;11.60;99.90
54700;DHT22;40599;53.132;6.090;2022-10-31T01:48:36;11.60;99.90
54700;DHT22;40599;53.132;6.090;2022-10-31T01:51:01;11.60;99.90
54700;DHT22;40599;53.132;6.090;2022-10-31T01:53:30;11.60;99.90
54700;DHT22;40599;53.132;6.090;2022-10-31T01:55:56;11.60;99.90
54700;DHT22;40599;53.132;6.090;2022-10-31T01:58:23;11.50;99.90
54700;DHT22;40599;53.132;6.090;2022-10-31T02:00:51;11.60;99.90
54700;DHT22;40599;53.132;6.090;2022-10-31T02:03:18;11.60;99.90
54700;DHT22;40599;53.132;6.090;2022-10-31T02:05:45;11.50;99.90
54700;DHT22;40599;53.132;6.090;2022-10-31T02:08:18;12.20;99.90
54700;DHT22;40599;53.132;6.090;2022-10-31T02:10:45;11.50;99.90
54700;DHT22;40599;53.132;6.090;2022-10-31T02:13:11;11.50;99.90
54700;DHT22;40599;53.132;6.090;2022-10-31T02:15:38;11.50;99.90
54700;DHT22;40599;53.132;6.090;2022-10-31T02:18:04;11.50;99.90
54700;DHT22;40599;53.132;6.090;2022-10-31T02:26:25;11.40;99.90
54700;DHT22;40599;53.132;6.090;2022-10-31T02:34:17;11.40;99.90
54700;DHT22;40599;53.132;6.090;2022-10-31T02:42:01;11.30;99.90
54700;DHT22;40599;53.132;6.090;2022-10-31T02:44:47;11.30;99.90
54700;DHT22;40599;53.132;6.090;2022-10-31T02:47:16;11.30;99.90
54700;DHT22;40599;53.132;6.090;2022-10-31T02:49:48;11.30;99.90
54700;DHT22;40599;53.132;6.090;2022-10-31T02:54:45;11.20;99.90
54700;DHT22;40599;53.132;6.090;2022-10-31T02:57:11;11.20;99.90
54700;DHT22;40599;53.132;6.090;2022-10-31T02:59:37;11.20;99.90
54700;DHT22;40599;53.132;6.090;2022-10-31T03:07:25;11.10;99.90
54700;DHT22;40599;53.132;6.090;2022-10-31T03:10:01;11.10;99.90
54700;DHT22;40599;53.132;6.090;2022-10-31T03:12:37;11.10;99.90
54700;DHT22;40599;53.132;6.090;2022-10-31T03:15:21;11.10;99.90
54700;DHT22;40599;53.132;6.090;2022-10-31T03:17:56;11.10;99.90
54700;DHT22;40599;53.132;6.090;2022-10-31T03:20:27;11.00;99.90
54700;DHT22;40599;53.132;6.090;2022-10-31T03:22:54;11.00;99.90
54700;DHT22;40599;53.132;6.090;2022-10-31T03:25:20;11.00;99.90
54700;DHT22;40599;53.132;6.090;2022-10-31T03:27:46;11.00;99.90
54700;DHT22;40599;53.132;6.090;2022-10-31T03:30:12;11.00;99.90
54700;DHT22;40599;53.132;6.090;2022-10-31T03:32:40;11.00;99.90
54700;DHT22;40599;53.132;6.090;2022-10-31T03:35:07;11.00;99.90
54700;DHT22;40599;53.132;6.090;2022-10-31T03:37:34;10.90;99.90
54700;DHT22;40599;53.132;6.090;2022-10-31T03:40:00;10.90;99.90
54700;DHT22;40599;53.132;6.090;2022-10-31T03:42:29;10.90;99.90
54700;DHT22;40599;53.132;6.090;2022-10-31T03:45:05;10.90;99.90
54700;DHT22;40599;53.132;6.090;2022-10-31T03:47:32;10.90;99.90
54700;DHT22;40599;53.132;6.090;2022-10-31T03:49:59;10.90;99.90
54700;DHT22;40599;53.132;6.090;2022-10-31T03:54:55;10.80;99.90
54700;DHT22;40599;53.132;6.090;2022-10-31T03:57:24;10.80;99.90
54700;DHT22;40599;53.132;6.090;2022-10-31T03:59:51;10.80;99.90
54700;DHT22;40599;53.132;6.090;2022-10-31T04:02:19;10.70;99.90
54700;DHT22;40599;53.132;6.090;2022-10-31T04:04:46;10.70;99.90
54700;DHT22;40599;53.132;6.090;2022-10-31T04:07:12;10.70;99.90
54700;DHT22;40599;53.132;6.090;2022-10-31T04:09:40;10.70;99.90
54700;DHT22;40599;53.132;6.090;2022-10-31T04:12:07;10.70;99.90
54700;DHT22;40599;53.132;6.090;2022-10-31T04:14:34;10.70;99.90
54700;DHT22;40599;53.132;6.090;2022-10-31T04:17:02;10.70;99.90
54700;DHT22;40599;53.132;6.090;2022-10-31T04:19:28;10.70;99.90
54700;DHT22;40599;53.132;6.090;2022-10-31T04:21:54;10.70;99.90
54700;DHT22;40599;53.132;6.090;2022-10-31T04:24:19;10.60;99.90
54700;DHT22;40599;53.132;6.090;2022-10-31T04:26:45;10.60;99.90
54700;DHT22;40599;53.132;6.090;2022-10-31T04:29:11;10.60;99.90
54700;DHT22;40599;53.132;6.090;2022-10-31T04:31:36;10.60;99.90
54700;DHT22;40599;53.132;6.090;2022-10-31T04:34:02;10.60;99.90
54700;DHT22;40599;53.132;6.090;2022-10-31T04:36:27;10.60;99.90
54700;DHT22;40599;53.132;6.090;2022-10-31T04:38:53;10.60;99.90
54700;DHT22;40599;53.132;6.090;2022-10-31T04:41:19;10.60;99.90
54700;DHT22;40599;53.132;6.090;2022-10-31T04:43:44;10.30;99.90
54700;DHT22;40599;53.132;6.090;2022-10-31T04:46:10;10.60;99.90
54700;DHT22;40599;53.132;6.090;2022-10-31T04:48:35;10.60;99.90
54700;DHT22;40599;53.132;6.090;2022-10-31T04:51:01;10.60;99.90
54700;DHT22;40599;53.132;6.090;2022-10-31T04:53:27;10.50;99.90
54700;DHT22;40599;53.132;6.090;2022-10-31T04:55:52;10.40;99.90
54700;DHT22;40599;53.132;6.090;2022-10-31T04:58:18;10.40;99.90
54700;DHT22;40599;53.132;6.090;2022-10-31T05:00:44;10.50;99.90
54700;DHT22;40599;53.132;6.090;2022-10-31T05:03:09;10.40;99.90
54700;DHT22;40599;53.132;6.090;2022-10-31T05:05:35;10.50;99.90
54700;DHT22;40599;53.132;6.090;2022-10-31T05:08:00;10.40;99.90
54700;DHT22;40599;53.132;6.090;2022-10-31T05:10:27;10.50;99.90
54700;DHT22;40599;53.132;6.090;2022-10-31T05:12:57;10.40;99.90
54700;DHT22;40599;53.132;6.090;2022-10-31T05:15:23;10.30;99.90
54700;DHT22;40599;53.132;6.090;2022-10-31T05:17:49;10.60;99.90
54700;DHT22;40599;53.132;6.090;2022-10-31T05:20:15;10.50;99.90
54700;DHT22;40599;53.132;6.090;2022-10-31T05:22:42;10.40;99.90
54700;DHT22;40599;53.132;6.090;2022-10-31T05:25:08;10.50;99.90
54700;DHT22;40599;53.132;6.090;2022-10-31T05:27:34;10.30;99.90
54700;DHT22;40599;53.132;6.090;2022-10-31T05:30:00;10.70;99.90
54700;DHT22;40599;53.132;6.090;2022-10-31T05:32:25;10.40;99.90
54700;DHT22;40599;53.132;6.090;2022-10-31T05:34:51;10.50;99.90
54700;DHT22;40599;53.132;6.090;2022-10-31T05:37:16;10.60;99.90
54700;DHT22;40599;53.132;6.090;2022-10-31T05:39:42;10.50;99.90
54700;DHT22;40599;53.132;6.090;2022-10-31T05:42:07;10.50;99.90
54700;DHT22;40599;53.132;6.090;2022-10-31T05:44:33;10.40;99.90
54700;DHT22;40599;53.132;6.090;2022-10-31T05:46:59;10.40;99.90
54700;DHT22;40599;53.132;6.090;2022-10-31T05:49:24;10.40;99.90
54700;DHT22;40599;53.132;6.090;2022-10-31T05:51:50;10.50;99.90
54700;DHT22;40599;53.132;6.090;2022-10-31T05:54:16;10.50;99.90
54700;DHT22;40599;53.132;6.090;2022-10-31T05:56:41;10.20;99.90
54700;DHT22;40599;53.132;6.090;2022-10-31T05:59:07;10.40;99.90
54700;DHT22;40599;53.132;6.090;2022-10-31T06:01:32;10.10;99.90
54700;DHT22;40599;53.132;6.090;2022-10-31T06:03:58;10.40;99.90
54700;DHT22;40599;53.132;6.090;2022-10-31T06:08:49;10.20;99.90
54700;DHT22;40599;53.132;6.090;2022-10-31T06:11:15;10.20;99.90
54700;DHT22;40599;53.132;6.090;2022-10-31T06:13:41;10.20;99.90
54700;DHT22;40599;53.132;6.090;2022-10-31T06:20:58;10.10;99.90
54700;DHT22;40599;53.132;6.090;2022-10-31T06:23:24;10.00;99.90
54700;DHT22;40599;53.132;6.090;2022-10-31T06:25:49;9.90;99.90
54700;DHT22;40599;53.132;6.090;2022-10-31T06:28:15;9.90;99.90
54700;DHT22;40599;53.132;6.090;2022-10-31T06:30:41;9.90;99.90
54700;DHT22;40599;53.132;6.090;2022-10-31T07:43:40;10.40;99.90
54700;DHT22;40599;53.132;6.090;2022-10-31T07:46:05;10.70;99.90
54700;DHT22;40599;53.132;6.090;2022-10-31T07:48:31;10.40;99.90
54700;DHT22;40599;53.132;6.090;2022-10-31T07:50:57;10.50;99.90
54700;DHT22;40599;53.132;6.090;2022-10-31T07:53:22;10.50;99.90
54700;DHT22;40599;53.132;6.090;2022-10-31T07:55:48;10.60;99.90
54700;DHT22;40599;53.132;6.090;2022-10-31T07:58:14;10.60;99.90
54700;DHT22;40599;53.132;6.090;2022-10-31T08:00:41;10.70;99.90
54700;DHT22;40599;53.132;6.090;2022-10-31T08:03:08;10.80;99.90
54700;DHT22;40599;53.132;6.090;2022-10-31T08:05:34;10.80;99.90
54700;DHT22;40599;53.132;6.090;2022-10-31T08:08:00;10.80;99.90
54700;DHT22;40599;53.132;6.090;2022-10-31T08:10:26;10.80;99.90
54700;DHT22;40599;53.132;6.090;2022-10-31T08:12:59;10.90;99.90
54700;DHT22;40599;53.132;6.090;2022-10-31T08:15:25;10.90;99.90
54700;DHT22;40599;53.132;6.090;2022-10-31T08:17:51;10.90;99.90
54700;DHT22;40599;53.132;6.090;2022-10-31T08:20:17;10.90;99.90
54700;DHT22;40599;53.132;6.090;2022-10-31T08:22:43;10.90;99.90
54700;DHT22;40599;53.132;6.090;2022-10-31T08:25:08;11.00;99.90
54700;DHT22;40599;53.132;6.090;2022-10-31T08:27:34;11.00;99.90
54700;DHT22;40599;53.132;6.090;2022-10-31T08:30:00;11.00;99.90
54700;DHT22;40599;53.132;6.090;2022-10-31T08:32:25;11.00;99.90
54700;DHT22;40599;53.132;6.090;2022-10-31T08:34:51;11.10;99.90
54700;DHT22;40599;53.132;6.090;2022-10-31T08:37:16;11.20;99.90
54700;DHT22;40599;53.132;6.090;2022-10-31T08:39:46;11.30;99.90
54700;DHT22;40599;53.132;6.090;2022-10-31T08:42:11;11.30;99.90
54700;DHT22;40599;53.132;6.090;2022-10-31T08:44:37;11.40;99.90
54700;DHT22;40599;53.132;6.090;2022-10-31T08:47:03;11.50;99.90
54700;DHT22;40599;53.132;6.090;2022-10-31T08:49:28;11.60;99.90
54700;DHT22;40599;53.132;6.090;2022-10-31T08:51:54;11.70;99.90
54700;DHT22;40599;53.132;6.090;2022-10-31T08:54:19;11.80;99.90
54700;DHT22;40599;53.132;6.090;2022-10-31T08:56:46;11.90;99.90
54700;DHT22;40599;53.132;6.090;2022-10-31T08:59:11;11.90;99.90
54700;DHT22;40599;53.132;6.090;2022-10-31T09:01:37;11.90;99.90
54700;DHT22;40599;53.132;6.090;2022-10-31T09:04:02;12.00;99.90
54700;DHT22;40599;53.132;6.090;2022-10-31T09:06:28;12.00;99.90
54700;DHT22;40599;53.132;6.090;2022-10-31T09:08:54;12.10;99.90
54700;DHT22;40599;53.132;6.090;2022-10-31T09:11:19;12.20;99.90
54700;DHT22;40599;53.132;6.090;2022-10-31T09:13:45;12.20;99.90
54700;DHT22;40599;53.132;6.090;2022-10-31T09:16:10;12.30;99.90
54700;DHT22;40599;53.132;6.090;2022-10-31T09:18:36;12.40;99.90
54700;DHT22;40599;53.132;6.090;2022-10-31T09:21:01;12.50;99.90
54700;DHT22;40599;53.132;6.090;2022-10-31T09:23:27;12.60;99.90
54700;DHT22;40599;53.132;6.090;2022-10-31T09:25:53;12.60;99.90
54700;DHT22;40599;53.132;6.090;2022-10-31T09:28:19;12.70;99.90
54700;DHT22;40599;53.132;6.090;2022-10-31T09:30:46;12.80;99.90
54700;DHT22;40599;53.132;6.090;2022-10-31T09:33:12;12.90;99.90
54700;DHT22;40599;53.132;6.090;2022-10-31T09:35:39;13.00;99.90
54700;DHT22;40599;53.132;6.090;2022-10-31T09:38:09;13.00;99.90
54700;DHT22;40599;53.132;6.090;2022-10-31T09:40:36;13.10;99.90
54700;DHT22;40599;53.132;6.090;2022-10-31T09:43:15;13.10;99.90
54700;DHT22;40599;53.132;6.090;2022-10-31T09:48:13;13.30;99.90
54700;DHT22;40599;53.132;6.090;2022-10-31T09:50:50;13.30;99.90
54700;DHT22;40599;53.132;6.090;2022-10-31T09:53:24;13.40;99.90
54700;DHT22;40599;53.132;6.090;2022-10-31T09:55:50;13.40;99.90
54700;DHT22;40599;53.132;6.090;2022-10-31T09:58:19;13.40;99.90
54700;DHT22;40599;53.132;6.090;2022-10-31T10:00:45;13.30;99.90
54700;DHT22;40599;53.132;6.090;2022-10-31T10:03:24;13.30;99.90
54700;DHT22;40599;53.132;6.090;2022-10-31T10:05:54;13.30;99.90
54700;DHT22;40599;53.132;6.090;2022-10-31T10:08:23;13.20;99.90
54700;DHT22;40599;53.132;6.090;2022-10-31T10:18:20;13.70;99.90
54700;DHT22;40599;53.132;6.090;2022-10-31T10:21:01;13.70;99.90
54700;DHT22;40599;53.132;6.090;2022-10-31T10:25:57;14.00;99.90
54700;DHT22;40599;53.132;6.090;2022-10-31T10:28:27;14.10;99.90
54700;DHT22;40599;53.132;6.090;2022-10-31T10:33:22;14.30;99.90
54700;DHT22;40599;53.132;6.090;2022-10-31T10:35:50;14.30;99.90
54700;DHT22;40599;53.132;6.090;2022-10-31T10:41:02;14.20;99.90
54700;DHT22;40599;53.132;6.090;2022-10-31T10:43:31;14.20;99.90
54700;DHT22;40599;53.132;6.090;2022-10-31T10:59:37;14.40;99.90
54700;DHT22;40599;53.132;6.090;2022-10-31T11:02:03;14.40;99.90
54700;DHT22;40599;53.132;6.090;2022-10-31T11:04:30;14.50;99.90
54700;DHT22;40599;53.132;6.090;2022-10-31T11:06:59;14.50;99.90
54700;DHT22;40599;53.132;6.090;2022-10-31T11:09:25;14.50;99.90
54700;DHT22;40599;53.132;6.090;2022-10-31T11:11:51;14.50;99.90
54700;DHT22;40599;53.132;6.090;2022-10-31T11:14:17;14.60;99.90
54700;DHT22;40599;53.132;6.090;2022-10-31T11:16:44;14.60;99.90
54700;DHT22;40599;53.132;6.090;2022-10-31T11:21:42;14.60;99.90
54700;DHT22;40599;53.132;6.090;2022-10-31T11:26:37;14.40;99.90
54700;DHT22;40599;53.132;6.090;2022-10-31T11:29:03;14.40;99.90
54700;DHT22;40599;53.132;6.090;2022-10-31T11:31:29;14.30;99.90
54700;DHT22;40599;53.132;6.090;2022-10-31T11:34:15;14.30;99.90
54700;DHT22;40599;53.132;6.090;2022-10-31T11:36:42;14.30;99.90
54700;DHT22;40599;53.132;6.090;2022-10-31T11:39:14;14.30;99.90
54700;DHT22;40599;53.132;6.090;2022-10-31T11:41:40;14.30;99.90
54700;DHT22;40599;53.132;6.090;2022-10-31T11:46:39;14.30;99.90
54700;DHT22;40599;53.132;6.090;2022-10-31T11:49:11;14.30;99.90
54700;DHT22;40599;53.132;6.090;2022-10-31T11:51:38;14.40;99.90
54700;DHT22;40599;53.132;6.090;2022-10-31T11:54:05;14.40;99.90
54700;DHT22;40599;53.132;6.090;2022-10-31T11:56:40;14.50;99.90
54700;DHT22;40599;53.132;6.090;2022-10-31T11:59:14;14.50;99.90
54700;DHT22;40599;53.132;6.090;2022-10-31T12:01:45;14.60;99.90
54700;DHT22;40599;53.132;6.090;2022-10-31T12:04:11;14.60;99.90
54700;DHT22;40599;53.132;6.090;2022-10-31T12:06:38;14.60;99.90
54700;DHT22;40599;53.132;6.090;2022-10-31T12:16:39;14.90;99.90
54700;DHT22;40599;53.132;6.090;2022-10-31T12:19:14;15.00;99.90
54700;DHT22;40599;53.132;6.090;2022-10-31T12:27:13;15.10;99.90
54700;DHT22;40599;53.132;6.090;2022-10-31T12:37:29;15.10;99.90
54700;DHT22;40599;53.132;6.090;2022-10-31T12:50:25;15.20;99.90
54700;DHT22;40599;53.132;6.090;2022-10-31T12:58:01;15.20;99.90
54700;DHT22;40599;53.132;6.090;2022-10-31T13:00:29;15.20;99.90
54700;DHT22;40599;53.132;6.090;2022-10-31T13:03:15;15.20;99.90
54700;DHT22;40599;53.132;6.090;2022-10-31T13:05:44;15.20;99.90
54700;DHT22;40599;53.132;6.090;2022-10-31T13:10:40;15.20;99.90
54700;DHT22;40599;53.132;6.090;2022-10-31T13:13:10;15.10;99.90
54700;DHT22;40599;53.132;6.090;2022-10-31T13:15:43;15.10;99.90
54700;DHT22;40599;53.132;6.090;2022-10-31T13:18:12;15.20;99.90
54700;DHT22;40599;53.132;6.090;2022-10-31T13:20:41;15.20;99.90
54700;DHT22;40599;53.132;6.090;2022-10-31T13:25:40;15.30;99.90
54700;DHT22;40599;53.132;6.090;2022-10-31T13:30:45;15.40;99.90
54700;DHT22;40599;53.132;6.090;2022-10-31T13:38:05;15.60;99.90
54700;DHT22;40599;53.132;6.090;2022-10-31T13:40:43;15.60;99.90
54700;DHT22;40599;53.132;6.090;2022-10-31T13:45:49;15.60;99.90
54700;DHT22;40599;53.132;6.090;2022-10-31T13:50:41;15.70;99.90
54700;DHT22;40599;53.132;6.090;2022-10-31T13:55:42;15.80;99.90
54700;DHT22;40599;53.132;6.090;2022-10-31T14:00:46;15.90;99.90
54700;DHT22;40599;53.132;6.090;2022-10-31T14:03:18;15.80;99.90
54700;DHT22;40599;53.132;6.090;2022-10-31T14:05:51;15.70;99.90
54700;DHT22;40599;53.132;6.090;2022-10-31T14:08:18;15.70;99.90
54700;DHT22;40599;53.132;6.090;2022-10-31T14:10:49;15.70;99.90
54700;DHT22;40599;53.132;6.090;2022-10-31T14:15:52;15.50;99.90
54700;DHT22;40599;53.132;6.090;2022-10-31T14:18:22;15.40;99.90
54700;DHT22;40599;53.132;6.090;2022-10-31T14:20:48;15.40;99.90
54700;DHT22;40599;53.132;6.090;2022-10-31T14:28:34;15.40;99.90
54700;DHT22;40599;53.132;6.090;2022-10-31T14:31:00;15.40;99.90
54700;DHT22;40599;53.132;6.090;2022-10-31T14:33:29;15.40;99.90
54700;DHT22;40599;53.132;6.090;2022-10-31T14:36:09;15.40;99.90
54700;DHT22;40599;53.132;6.090;2022-10-31T14:38:42;15.40;99.90
54700;DHT22;40599;53.132;6.090;2022-10-31T14:49:48;15.30;99.90
54700;DHT22;40599;53.132;6.090;2022-10-31T14:52:16;15.20;99.90
54700;DHT22;40599;53.132;6.090;2022-10-31T14:54:47;15.30;99.90
54700;DHT22;40599;53.132;6.090;2022-10-31T14:59:47;15.10;99.90
54700;DHT22;40599;53.132;6.090;2022-10-31T15:02:15;15.10;99.90
54700;DHT22;40599;53.132;6.090;2022-10-31T15:04:42;15.10;99.90
54700;DHT22;40599;53.132;6.090;2022-10-31T15:09:38;15.00;99.90
54700;DHT22;40599;53.132;6.090;2022-10-31T15:15:20;14.90;99.90
54700;DHT22;40599;53.132;6.090;2022-10-31T15:17:53;14.90;99.90
54700;DHT22;40599;53.132;6.090;2022-10-31T15:20:20;14.90;99.90
54700;DHT22;40599;53.132;6.090;2022-10-31T15:22:46;14.80;99.90
54700;DHT22;40599;53.132;6.090;2022-10-31T15:25:17;14.80;99.90
54700;DHT22;40599;53.132;6.090;2022-10-31T15:27:43;14.70;99.90
54700;DHT22;40599;53.132;6.090;2022-10-31T15:32:47;14.60;99.90
54700;DHT22;40599;53.132;6.090;2022-10-31T15:35:23;14.60;99.90
54700;DHT22;40599;53.132;6.090;2022-10-31T15:37:51;14.60;99.90
54700;DHT22;40599;53.132;6.090;2022-10-31T15:40:17;14.50;99.90
54700;DHT22;40599;53.132;6.090;2022-10-31T15:42:52;14.50;99.90
54700;DHT22;40599;53.132;6.090;2022-10-31T15:45:20;14.50;99.90
54700;DHT22;40599;53.132;6.090;2022-10-31T15:52:48;14.30;99.90
54700;DHT22;40599;53.132;6.090;2022-10-31T15:55:18;14.30;99.90
54700;DHT22;40599;53.132;6.090;2022-10-31T15:57:46;14.30;99.90
54700;DHT22;40599;53.132;6.090;2022-10-31T16:02:47;14.20;99.90
54700;DHT22;40599;53.132;6.090;2022-10-31T16:05:17;14.20;99.90
54700;DHT22;40599;53.132;6.090;2022-10-31T16:07:49;14.20;99.90
54700;DHT22;40599;53.132;6.090;2022-10-31T16:10:22;14.10;99.90
54700;DHT22;40599;53.132;6.090;2022-10-31T16:12:49;14.10;99.90
54700;DHT22;40599;53.132;6.090;2022-10-31T16:15:15;14.10;99.90
54700;DHT22;40599;53.132;6.090;2022-10-31T16:17:43;14.00;99.90
54700;DHT22;40599;53.132;6.090;2022-10-31T16:20:19;14.00;99.90
54700;DHT22;40599;53.132;6.090;2022-10-31T16:22:47;14.00;99.90
54700;DHT22;40599;53.132;6.090;2022-10-31T16:25:15;13.90;99.90
54700;DHT22;40599;53.132;6.090;2022-10-31T16:27:47;13.90;99.90
54700;DHT22;40599;53.132;6.090;2022-10-31T16:32:58;13.90;99.90
54700;DHT22;40599;53.132;6.090;2022-10-31T16:37:53;13.90;99.90
54700;DHT22;40599;53.132;6.090;2022-10-31T16:40:19;13.80;99.90
54700;DHT22;40599;53.132;6.090;2022-10-31T16:42:46;13.80;99.90
54700;DHT22;40599;53.132;6.090;2022-10-31T16:45:23;13.80;99.90
54700;DHT22;40599;53.132;6.090;2022-10-31T16:47:49;13.80;99.90
54700;DHT22;40599;53.132;6.090;2022-10-31T16:50:25;13.80;99.90
54700;DHT22;40599;53.132;6.090;2022-10-31T16:52:51;13.80;99.90
54700;DHT22;40599;53.132;6.090;2022-10-31T16:55:17;13.80;99.90
54700;DHT22;40599;53.132;6.090;2022-10-31T16:57:45;13.80;99.90
54700;DHT22;40599;53.132;6.090;2022-10-31T17:00:16;13.70;99.90
54700;DHT22;40599;53.132;6.090;2022-10-31T17:02:42;13.70;99.90
54700;DHT22;40599;53.132;6.090;2022-10-31T17:05:09;13.80;99.90
54700;DHT22;40599;53.132;6.090;2022-10-31T17:07:34;13.70;99.90
54700;DHT22;40599;53.132;6.090;2022-10-31T17:10:00;13.70;99.90
54700;DHT22;40599;53.132;6.090;2022-10-31T17:12:26;13.70;99.90
54700;DHT22;40599;53.132;6.090;2022-10-31T17:14:51;13.70;99.90
54700;DHT22;40599;53.132;6.090;2022-10-31T17:17:17;13.70;99.90
54700;DHT22;40599;53.132;6.090;2022-10-31T17:19:43;13.70;99.90
54700;DHT22;40599;53.132;6.090;2022-10-31T17:22:12;13.70;99.90
54700;DHT22;40599;53.132;6.090;2022-10-31T17:24:38;13.70;99.90
54700;DHT22;40599;53.132;6.090;2022-10-31T17:27:03;13.70;99.90
54700;DHT22;40599;53.132;6.090;2022-10-31T17:29:29;13.60;99.90
54700;DHT22;40599;53.132;6.090;2022-10-31T17:31:55;13.60;99.90
54700;DHT22;40599;53.132;6.090;2022-10-31T17:34:20;13.70;99.90
54700;DHT22;40599;53.132;6.090;2022-10-31T17:36:49;13.70;99.90
54700;DHT22;40599;53.132;6.090;2022-10-31T17:39:15;13.70;99.90
54700;DHT22;40599;53.132;6.090;2022-10-31T17:41:41;13.60;99.90
54700;DHT22;40599;53.132;6.090;2022-10-31T17:44:08;13.60;99.90
54700;DHT22;40599;53.132;6.090;2022-10-31T17:46:34;13.60;99.90
54700;DHT22;40599;53.132;6.090;2022-10-31T17:49:00;13.60;99.90
54700;DHT22;40599;53.132;6.090;2022-10-31T17:51:26;13.60;99.90
54700;DHT22;40599;53.132;6.090;2022-10-31T17:53:51;13.60;99.90
54700;DHT22;40599;53.132;6.090;2022-10-31T17:56:17;13.60;99.90
54700;DHT22;40599;53.132;6.090;2022-10-31T17:58:43;13.60;99.90
54700;DHT22;40599;53.132;6.090;2022-10-31T18:01:09;13.60;99.90
54700;DHT22;40599;53.132;6.090;2022-10-31T18:03:35;13.60;99.90
54700;DHT22;40599;53.132;6.090;2022-10-31T18:06:01;13.60;99.90
54700;DHT22;40599;53.132;6.090;2022-10-31T18:08:27;13.60;99.90
54700;DHT22;40599;53.132;6.090;2022-10-31T18:10:53;13.60;99.90
54700;DHT22;40599;53.132;6.090;2022-10-31T18:13:20;13.60;99.90
54700;DHT22;40599;53.132;6.090;2022-10-31T18:15:45;13.60;99.90
54700;DHT22;40599;53.132;6.090;2022-10-31T18:18:11;13.50;99.90
54700;DHT22;40599;53.132;6.090;2022-10-31T18:20:36;13.50;99.90
54700;DHT22;40599;53.132;6.090;2022-10-31T18:23:02;13.50;99.90
54700;DHT22;40599;53.132;6.090;2022-10-31T18:25:28;13.50;99.90
54700;DHT22;40599;53.132;6.090;2022-10-31T18:27:54;13.50;99.90
54700;DHT22;40599;53.132;6.090;2022-10-31T18:30:19;13.50;99.90
54700;DHT22;40599;53.132;6.090;2022-10-31T18:32:47;13.50;99.90
54700;DHT22;40599;53.132;6.090;2022-10-31T18:35:13;13.50;99.90
54700;DHT22;40599;53.132;6.090;2022-10-31T18:37:39;13.50;99.90
54700;DHT22;40599;53.132;6.090;2022-10-31T18:40:04;13.50;99.90
54700;DHT22;40599;53.132;6.090;2022-10-31T18:42:31;13.50;99.90
54700;DHT22;40599;53.132;6.090;2022-10-31T18:44:56;13.40;99.90
54700;DHT22;40599;53.132;6.090;2022-10-31T18:47:22;13.40;99.90
54700;DHT22;40599;53.132;6.090;2022-10-31T18:49:47;13.50;99.90
54700;DHT22;40599;53.132;6.090;2022-10-31T18:52:13;13.50;99.90
54700;DHT22;40599;53.132;6.090;2022-10-31T18:54:39;13.40;99.90
54700;DHT22;40599;53.132;6.090;2022-10-31T18:57:04;13.50;99.90
54700;DHT22;40599;53.132;6.090;2022-10-31T18:59:30;13.50;99.90
54700;DHT22;40599;53.132;6.090;2022-10-31T19:01:56;13.50;99.90
54700;DHT22;40599;53.132;6.090;2022-10-31T19:04:21;13.50;99.90
54700;DHT22;40599;53.132;6.090;2022-10-31T19:06:47;13.40;99.90
54700;DHT22;40599;53.132;6.090;2022-10-31T19:09:12;13.50;99.90
54700;DHT22;40599;53.132;6.090;2022-10-31T19:11:38;13.40;99.90
54700;DHT22;40599;53.132;6.090;2022-10-31T19:14:04;13.40;99.90
54700;DHT22;40599;53.132;6.090;2022-10-31T19:16:32;13.50;99.90
54700;DHT22;40599;53.132;6.090;2022-10-31T19:18:58;13.40;99.90
54700;DHT22;40599;53.132;6.090;2022-10-31T19:21:24;13.40;99.90
54700;DHT22;40599;53.132;6.090;2022-10-31T19:23:51;13.40;99.90
54700;DHT22;40599;53.132;6.090;2022-10-31T19:26:16;13.50;99.90
54700;DHT22;40599;53.132;6.090;2022-10-31T19:28:42;13.40;99.90
54700;DHT22;40599;53.132;6.090;2022-10-31T19:31:08;13.40;99.90
54700;DHT22;40599;53.132;6.090;2022-10-31T19:33:34;13.40;99.90
54700;DHT22;40599;53.132;6.090;2022-10-31T19:36:00;13.40;99.90
54700;DHT22;40599;53.132;6.090;2022-10-31T19:38:29;13.40;99.90
54700;DHT22;40599;53.132;6.090;2022-10-31T19:40:58;13.40;99.90
54700;DHT22;40599;53.132;6.090;2022-10-31T19:43:25;13.40;99.90
54700;DHT22;40599;53.132;6.090;2022-10-31T19:45:55;13.40;99.90
54700;DHT22;40599;53.132;6.090;2022-10-31T19:48:21;13.40;99.90
54700;DHT22;40599;53.132;6.090;2022-10-31T19:50:47;13.40;99.90
54700;DHT22;40599;53.132;6.090;2022-10-31T19:53:12;13.40;99.90
54700;DHT22;40599;53.132;6.090;2022-10-31T19:55:38;13.30;99.90
54700;DHT22;40599;53.132;6.090;2022-10-31T19:58:04;13.30;99.90
54700;DHT22;40599;53.132;6.090;2022-10-31T20:00:30;13.30;99.90
54700;DHT22;40599;53.132;6.090;2022-10-31T20:02:55;13.60;99.90
54700;DHT22;40599;53.132;6.090;2022-10-31T20:05:21;13.50;99.90
54700;DHT22;40599;53.132;6.090;2022-10-31T20:07:46;13.20;99.90
54700;DHT22;40599;53.132;6.090;2022-10-31T20:10:12;13.20;99.90
54700;DHT22;40599;53.132;6.090;2022-10-31T20:12:38;13.10;99.90
54700;DHT22;40599;53.132;6.090;2022-10-31T20:15:03;13.20;99.90
54700;DHT22;40599;53.132;6.090;2022-10-31T20:17:29;13.10;99.90
54700;DHT22;40599;53.132;6.090;2022-10-31T20:19:55;13.10;99.90
54700;DHT22;40599;53.132;6.090;2022-10-31T20:22:20;13.00;99.90
54700;DHT22;40599;53.132;6.090;2022-10-31T20:24:46;13.00;99.90
54700;DHT22;40599;53.132;6.090;2022-10-31T20:27:11;13.80;99.90
54700;DHT22;40599;53.132;6.090;2022-10-31T20:29:37;12.90;99.90
54700;DHT22;40599;53.132;6.090;2022-10-31T20:32:03;12.90;99.90
54700;DHT22;40599;53.132;6.090;2022-10-31T20:34:29;12.90;99.90
54700;DHT22;40599;53.132;6.090;2022-10-31T20:36:54;12.90;99.90
54700;DHT22;40599;53.132;6.090;2022-10-31T20:39:20;12.80;99.90
54700;DHT22;40599;53.132;6.090;2022-10-31T20:41:45;12.80;99.90
54700;DHT22;40599;53.132;6.090;2022-10-31T20:44:13;12.80;99.90
54700;DHT22;40599;53.132;6.090;2022-10-31T20:46:38;12.70;99.90